Time;durP1;ratioP1;P1;durP2;ratioP2;P2;SDS_P1;SDS_P2;PMS_P1;PMS_P2;Temp;Humidity;BMP_temperature;BMP_pressure;BME280_temperature;BME280_humidity;BME280_pressure;Samples;Min_cycle;Max_cycle;Signal;HPM_P1;HPM_P2
2023/07/28 00:01:31;;;;;;;8.70;3.83;;;19.60;86.20;;;;;;5081498;28;20987;-81
2023/07/28 00:03:59;;;;;;;7.40;4.43;;;19.70;86.30;;;;;;5088973;28;20452;-81
2023/07/28 00:06:28;;;;;;;8.20;3.53;;;19.60;86.20;;;;;;5085475;28;20464;-81
2023/07/28 00:08:56;;;;;;;7.33;3.67;;;19.70;86.20;;;;;;5087978;28;20540;-82
2023/07/28 00:11:25;;;;;;;7.73;3.33;;;19.70;86.20;;;;;;5088300;28;20483;-82
2023/07/28 00:13:53;;;;;;;6.40;3.33;;;19.70;86.20;;;;;;5089489;28;21046;-81
2023/07/28 00:16:21;;;;;;;5.80;3.30;;;19.70;86.20;;;;;;5088790;28;20770;-82
2023/07/28 00:18:49;;;;;;;7.73;3.60;;;19.60;86.20;;;;;;5097638;28;20494;-82
2023/07/28 00:21:19;;;;;;;7.57;4.20;;;19.60;86.20;;;;;;5088319;28;20469;-81
2023/07/28 00:23:48;;;;;;;6.30;3.30;;;19.60;86.20;;;;;;5080849;28;20468;-81
2023/07/28 00:26:16;;;;;;;6.10;3.40;;;19.60;86.20;;;;;;5087569;28;20987;-82
2023/07/28 00:28:46;;;;;;;6.50;3.70;;;19.60;86.20;;;;;;5076738;28;21368;-82
2023/07/28 00:31:15;;;;;;;8.67;4.20;;;19.60;86.30;;;;;;5083652;28;20477;-81
2023/07/28 00:33:45;;;;;;;6.00;3.43;;;19.60;86.30;;;;;;5081981;28;20456;-82
2023/07/28 00:36:13;;;;;;;6.33;3.63;;;19.60;86.30;;;;;;5082612;28;20505;-82
2023/07/28 00:38:43;;;;;;;6.70;3.30;;;19.60;86.30;;;;;;5082994;28;20468;-83
2023/07/28 00:41:13;;;;;;;8.03;3.10;;;19.50;86.40;;;;;;5085574;28;21157;-82
2023/07/28 00:43:43;;;;;;;7.07;3.57;;;19.50;86.40;;;;;;5086524;28;20465;-81
2023/07/28 00:46:14;;;;;;;5.40;2.90;;;19.50;86.50;;;;;;5085808;28;20445;-81
2023/07/28 00:48:44;;;;;;;6.93;3.63;;;19.60;86.40;;;;;;5081484;28;20448;-81
2023/07/28 00:51:12;;;;;;;6.60;3.30;;;19.60;86.40;;;;;;5089156;28;20864;-84
2023/07/28 00:53:42;;;;;;;10.40;3.17;;;19.60;86.40;;;;;;5085890;28;20558;-82
2023/07/28 00:56:16;;;;;;;6.60;3.73;;;19.50;86.40;;;;;;5101417;28;20460;-82
2023/07/28 00:58:44;;;;;;;10.37;3.80;;;19.50;86.50;;;;;;5088966;28;20500;-82
2023/07/28 01:01:12;;;;;;;6.27;2.90;;;19.50;86.50;;;;;;5083608;28;20567;-80
2023/07/28 01:03:42;;;;;;;7.20;3.63;;;19.50;86.50;;;;;;5086936;28;20876;-81
2023/07/28 01:06:18;;;;;;;8.90;3.20;;;19.50;86.50;;;;;;5086084;28;20477;-81
2023/07/28 01:08:54;;;;;;;6.33;3.83;;;19.60;86.40;;;;;;5082588;28;20485;-81
2023/07/28 01:11:23;;;;;;;10.43;3.77;;;19.50;86.50;;;;;;5084453;28;20915;-80
2023/07/28 01:13:51;;;;;;;7.10;3.87;;;19.60;86.50;;;;;;5088828;28;20563;-81
2023/07/28 01:16:21;;;;;;;6.20;2.80;;;19.50;86.50;;;;;;5084897;28;20538;-81
2023/07/28 01:18:50;;;;;;;8.90;3.57;;;19.50;86.50;;;;;;5083634;28;20521;-81
2023/07/28 01:21:22;;;;;;;6.87;3.40;;;19.50;86.50;;;;;;5093678;28;20464;-81
2023/07/28 01:24:04;;;;;;;6.63;3.13;;;19.50;86.50;;;;;;5091406;28;20547;-81
2023/07/28 01:26:36;;;;;;;9.27;3.90;;;19.60;86.50;;;;;;5087924;28;20526;-82
2023/07/28 01:29:12;;;;;;;6.40;3.10;;;19.50;86.60;;;;;;5085397;28;20457;-82
2023/07/28 01:31:40;;;;;;;6.80;2.80;;;19.60;86.60;;;;;;5081759;28;20479;-81
2023/07/28 01:34:08;;;;;;;5.13;2.77;;;19.60;86.50;;;;;;5088993;28;20468;-82
2023/07/28 01:36:36;;;;;;;5.10;3.17;;;19.60;86.50;;;;;;5085518;28;20464;-83
2023/07/28 01:39:04;;;;;;;7.07;3.17;;;19.50;86.50;;;;;;5084765;28;20464;-82
2023/07/28 01:41:34;;;;;;;5.77;3.13;;;19.60;86.50;;;;;;5089379;28;20834;-82
2023/07/28 01:44:03;;;;;;;7.13;2.73;;;19.50;86.60;;;;;;5085994;28;20508;-82
2023/07/28 01:46:31;;;;;;;7.40;3.23;;;19.60;86.60;;;;;;5087279;28;20543;-82
2023/07/28 01:48:59;;;;;;;5.70;3.20;;;19.60;86.50;;;;;;5089476;28;20465;-84
2023/07/28 01:51:27;;;;;;;7.80;2.67;;;19.60;86.50;;;;;;5089998;28;20487;-83
2023/07/28 01:53:55;;;;;;;8.00;3.20;;;19.50;86.60;;;;;;5084172;28;20488;-82
2023/07/28 01:56:23;;;;;;;8.07;3.47;;;19.50;86.60;;;;;;5090173;28;20495;-85
2023/07/28 01:58:53;;;;;;;6.70;3.27;;;19.50;86.60;;;;;;5091961;28;21006;-84
2023/07/28 02:01:21;;;;;;;6.90;2.90;;;19.50;86.60;;;;;;5085700;28;20521;-83
2023/07/28 02:03:49;;;;;;;6.10;3.27;;;19.50;86.80;;;;;;5095917;28;20472;-83
2023/07/28 02:06:17;;;;;;;6.03;3.50;;;19.50;86.70;;;;;;5101085;28;20481;-84
2023/07/28 02:08:47;;;;;;;8.87;2.90;;;19.50;86.70;;;;;;5087865;28;20468;-84
2023/07/28 02:11:15;;;;;;;8.23;3.47;;;19.50;86.60;;;;;;5088978;28;20554;-83
2023/07/28 02:13:45;;;;;;;7.00;2.97;;;19.50;86.70;;;;;;5085999;28;20457;-83
2023/07/28 02:16:18;;;;;;;8.43;3.27;;;19.50;86.70;;;;;;5090484;28;20448;-80
2023/07/28 02:18:46;;;;;;;5.87;2.80;;;19.50;86.70;;;;;;5084215;28;20453;-82
2023/07/28 02:21:14;;;;;;;6.43;2.43;;;19.50;86.70;;;;;;5088366;28;20859;-82
2023/07/28 02:23:42;;;;;;;5.87;3.00;;;19.50;86.70;;;;;;5090448;28;20452;-83
2023/07/28 02:26:10;;;;;;;6.37;2.30;;;19.50;86.70;;;;;;5090137;28;20554;-82
2023/07/28 02:28:42;;;;;;;5.43;3.10;;;19.60;86.60;;;;;;5090138;28;20453;-82
2023/07/28 02:31:11;;;;;;;5.57;2.87;;;19.60;86.60;;;;;;5089328;28;20472;-82
2023/07/28 02:33:40;;;;;;;5.63;3.03;;;19.60;86.60;;;;;;5089395;28;20464;-82
2023/07/28 02:36:08;;;;;;;7.70;3.77;;;19.60;86.60;;;;;;5105827;28;21112;-80
2023/07/28 02:38:36;;;;;;;6.23;3.00;;;19.50;86.60;;;;;;5091861;28;20540;-80
2023/07/28 02:41:05;;;;;;;8.17;3.10;;;19.50;86.70;;;;;;5088725;28;20532;-81
2023/07/28 02:43:33;;;;;;;6.03;2.63;;;19.50;86.80;;;;;;5088166;28;21035;-80
2023/07/28 02:46:01;;;;;;;5.10;2.57;;;19.50;86.90;;;;;;5107022;28;20457;-81
2023/07/28 02:48:29;;;;;;;7.27;3.57;;;19.50;86.90;;;;;;5089815;28;20460;-81
2023/07/28 02:50:59;;;;;;;8.10;2.73;;;19.50;86.80;;;;;;5089566;28;20544;-81
2023/07/28 02:53:28;;;;;;;7.63;2.93;;;19.50;86.80;;;;;;5089529;28;20441;-81
2023/07/28 02:55:57;;;;;;;6.90;3.17;;;19.50;86.80;;;;;;5088398;28;20484;-82
2023/07/28 02:58:26;;;;;;;6.03;3.30;;;19.50;86.80;;;;;;5089472;28;20540;-82
2023/07/28 03:00:54;;;;;;;7.77;3.40;;;19.50;86.80;;;;;;5090540;28;21280;-82
2023/07/28 03:03:30;;;;;;;7.50;3.30;;;19.60;86.80;;;;;;5084651;28;20494;-82
2023/07/28 03:06:00;;;;;;;6.13;3.03;;;19.60;86.80;;;;;;5091142;28;20476;-82
2023/07/28 03:08:28;;;;;;;8.60;3.30;;;19.60;86.80;;;;;;5089903;28;20457;-82
2023/07/28 03:11:11;;;;;;;5.60;2.53;;;19.60;86.80;;;;;;5086332;28;20470;-82
2023/07/28 03:13:39;;;;;;;7.10;2.70;;;19.60;86.80;;;;;;5088651;28;20487;-82
2023/07/28 03:16:07;;;;;;;6.20;2.77;;;19.60;86.90;;;;;;5090716;28;20931;-80
2023/07/28 03:18:35;;;;;;;6.80;3.00;;;19.60;86.90;;;;;;5086151;28;20464;-80
2023/07/28 03:21:05;;;;;;;8.30;2.50;;;19.60;86.90;;;;;;5093193;28;20515;-80
2023/07/28 03:23:33;;;;;;;7.20;2.80;;;19.60;86.90;;;;;;5088297;28;20449;-81
2023/07/28 03:26:01;;;;;;;7.57;2.30;;;19.60;86.80;;;;;;5093834;28;20916;-81
2023/07/28 03:28:29;;;;;;;9.10;3.37;;;19.60;86.90;;;;;;5087278;28;20955;-81
2023/07/28 03:30:57;;;;;;;6.73;2.43;;;19.60;86.90;;;;;;5084719;28;20998;-81
2023/07/28 03:33:32;;;;;;;5.83;2.50;;;19.60;86.90;;;;;;5090013;28;20480;-81
2023/07/28 03:36:00;;;;;;;4.40;1.90;;;19.60;86.90;;;;;;5087925;28;20478;-81
2023/07/28 03:38:35;;;;;;;5.33;2.60;;;19.60;86.90;;;;;;5091846;28;20450;-82
2023/07/28 03:41:06;;;;;;;5.03;2.03;;;19.60;86.90;;;;;;5107160;28;20496;-81
2023/07/28 03:43:35;;;;;;;10.43;2.20;;;19.60;87.00;;;;;;5087857;28;20503;-81
2023/07/28 03:46:03;;;;;;;4.17;1.83;;;19.60;87.00;;;;;;5089138;28;20457;-81
2023/07/28 03:48:31;;;;;;;4.57;1.60;;;19.60;86.90;;;;;;5076092;28;20482;-81
2023/07/28 03:51:00;;;;;;;5.40;1.57;;;19.60;87.00;;;;;;5090059;28;21097;-82
2023/07/28 03:53:29;;;;;;;5.10;1.70;;;19.60;87.00;;;;;;5090782;28;20601;-82
2023/07/28 03:55:58;;;;;;;4.63;1.40;;;19.50;87.00;;;;;;5088185;28;20452;-81
2023/07/28 03:58:26;;;;;;;5.40;1.27;;;19.60;87.00;;;;;;5082583;28;20460;-81
2023/07/28 04:00:54;;;;;;;4.13;1.60;;;19.60;87.00;;;;;;5095883;28;20480;-82
2023/07/28 04:03:30;;;;;;;3.77;1.33;;;19.60;87.00;;;;;;5088760;28;20460;-82
2023/07/28 04:05:58;;;;;;;4.00;1.17;;;19.60;87.10;;;;;;5084314;28;20547;-82
2023/07/28 04:08:26;;;;;;;3.60;1.20;;;19.60;87.00;;;;;;5087905;28;20547;-81
2023/07/28 04:10:56;;;;;;;7.70;1.30;;;19.60;87.00;;;;;;5090962;28;20544;-82
2023/07/28 04:13:24;;;;;;;7.90;1.80;;;19.60;87.00;;;;;;5091593;28;20481;-82
2023/07/28 04:15:52;;;;;;;4.67;1.23;;;19.60;87.10;;;;;;5095167;28;20553;-82
2023/07/28 04:18:20;;;;;;;3.73;1.00;;;19.60;87.10;;;;;;5088845;28;20457;-82
2023/07/28 04:20:48;;;;;;;3.43;1.10;;;19.60;87.00;;;;;;5085588;28;21014;-82
2023/07/28 04:23:16;;;;;;;4.67;1.00;;;19.60;87.00;;;;;;5080544;28;20456;-83
2023/07/28 04:25:44;;;;;;;3.90;1.20;;;19.60;87.00;;;;;;5088894;28;20519;-82
2023/07/28 04:28:13;;;;;;;4.70;1.37;;;19.60;87.10;;;;;;5091265;28;20540;-81
2023/07/28 04:30:42;;;;;;;3.20;0.83;;;19.60;87.10;;;;;;5086281;28;20461;-81
2023/07/28 04:33:18;;;;;;;4.70;1.20;;;19.60;87.10;;;;;;5086278;28;20479;-81
2023/07/28 04:35:47;;;;;;;6.03;1.20;;;19.60;87.10;;;;;;5087842;28;20476;-81
2023/07/28 04:38:19;;;;;;;3.73;1.10;;;19.60;87.20;;;;;;5081660;28;20959;-81
2023/07/28 04:40:53;;;;;;;4.20;0.90;;;19.60;87.10;;;;;;5085789;28;21203;-81
2023/07/28 04:43:27;;;;;;;4.27;1.20;;;19.70;87.10;;;;;;5091190;28;21000;-82
2023/07/28 04:45:57;;;;;;;4.80;1.40;;;19.70;87.10;;;;;;5091380;28;20472;-81
2023/07/28 04:48:35;;;;;;;4.00;1.20;;;19.70;87.10;;;;;;5092653;28;20460;-81
2023/07/28 04:51:24;;;;;;;4.80;1.00;;;19.70;87.10;;;;;;5094581;28;20510;-80
2023/07/28 04:54:21;;;;;;;4.70;1.10;;;19.70;87.10;;;;;;5086701;28;20448;-80
2023/07/28 04:57:04;;;;;;;6.37;1.13;;;19.80;87.00;;;;;;5108816;28;20456;-81
2023/07/28 04:59:37;;;;;;;3.70;1.20;;;19.80;86.90;;;;;;5104582;28;20984;-80
2023/07/28 05:02:06;;;;;;;3.97;1.23;;;19.80;86.90;;;;;;5086702;28;20473;-80
2023/07/28 05:04:34;;;;;;;6.17;1.30;;;19.80;87.00;;;;;;5090388;28;20483;-80
2023/07/28 05:07:02;;;;;;;4.63;1.20;;;19.80;87.00;;;;;;5089880;28;20452;-81
2023/07/28 05:09:30;;;;;;;5.17;1.50;;;19.80;87.00;;;;;;5084343;28;21125;-81
2023/07/28 05:11:58;;;;;;;6.13;1.07;;;19.90;87.00;;;;;;5105292;28;20448;-80
2023/07/28 05:14:28;;;;;;;4.20;1.17;;;19.90;86.90;;;;;;5082132;28;20477;-81
2023/07/28 05:16:58;;;;;;;4.53;1.47;;;19.90;86.80;;;;;;5090897;28;20541;-79
2023/07/28 05:19:34;;;;;;;3.50;1.10;;;19.90;86.90;;;;;;5087888;28;20461;-80
2023/07/28 05:22:02;;;;;;;5.30;1.17;;;19.90;86.90;;;;;;5088895;28;20453;-81
2023/07/28 05:24:50;;;;;;;3.33;0.93;;;19.90;86.90;;;;;;5089417;28;20456;-80
2023/07/28 05:27:26;;;;;;;3.30;0.90;;;19.90;86.90;;;;;;5086507;28;20471;-80
2023/07/28 05:29:54;;;;;;;3.87;1.23;;;19.90;86.90;;;;;;5083744;28;20467;-80
2023/07/28 05:32:24;;;;;;;3.90;1.40;;;19.90;87.00;;;;;;5087435;28;20469;-81
2023/07/28 05:35:09;;;;;;;4.00;1.57;;;19.90;87.00;;;;;;5076918;28;21042;-81
2023/07/28 05:37:37;;;;;;;3.67;1.20;;;19.90;87.00;;;;;;5089936;28;20464;-80
2023/07/28 05:40:06;;;;;;;4.50;1.30;;;19.90;87.00;;;;;;5090744;28;20552;-81
2023/07/28 05:42:35;;;;;;;4.37;1.57;;;19.90;87.10;;;;;;5095344;28;20446;-80
2023/07/28 05:45:04;;;;;;;4.77;1.53;;;19.90;87.10;;;;;;5096301;28;20568;-80
2023/07/28 05:47:34;;;;;;;4.63;1.23;;;20.00;87.00;;;;;;5084212;28;21047;-80
2023/07/28 05:50:02;;;;;;;5.40;1.07;;;20.00;87.00;;;;;;5083219;28;20484;-81
2023/07/28 05:52:32;;;;;;;4.20;1.47;;;20.00;87.00;;;;;;5088405;28;20528;-80
2023/07/28 05:55:00;;;;;;;3.93;1.50;;;20.00;87.10;;;;;;5090121;28;20484;-80
2023/07/28 05:57:29;;;;;;;7.20;1.87;;;20.10;87.00;;;;;;5082628;28;20457;-81
2023/07/28 05:59:58;;;;;;;6.67;1.40;;;20.10;87.00;;;;;;5081351;28;20452;-80
2023/07/28 06:02:26;;;;;;;3.80;1.50;;;20.10;87.00;;;;;;5085851;28;20468;-80
2023/07/28 06:04:58;;;;;;;4.57;1.90;;;20.20;87.00;;;;;;5104630;28;20453;-80
2023/07/28 06:07:26;;;;;;;5.00;1.57;;;20.10;87.00;;;;;;5089532;28;20449;-79
2023/07/28 06:09:54;;;;;;;4.10;1.57;;;20.20;87.00;;;;;;5084420;28;20506;-80
2023/07/28 06:12:22;;;;;;;5.20;1.73;;;20.20;87.00;;;;;;5082513;28;20554;-80
2023/07/28 06:14:51;;;;;;;4.80;1.63;;;20.20;87.00;;;;;;5088778;28;20477;-80
2023/07/28 06:17:22;;;;;;;5.57;1.90;;;20.20;86.90;;;;;;5078394;28;20459;-81
2023/07/28 06:19:50;;;;;;;5.37;2.20;;;20.20;86.90;;;;;;5095099;28;20606;-80
2023/07/28 06:22:20;;;;;;;5.00;1.50;;;20.20;86.90;;;;;;5080817;28;20460;-80
2023/07/28 06:24:48;;;;;;;7.10;2.00;;;20.20;86.90;;;;;;5102626;28;20454;-81
2023/07/28 06:27:17;;;;;;;4.10;1.17;;;20.20;87.00;;;;;;5091501;28;20509;-79
2023/07/28 06:29:45;;;;;;;3.73;1.30;;;20.20;87.00;;;;;;5085026;28;20462;-81
2023/07/28 06:32:14;;;;;;;5.30;1.60;;;20.20;87.00;;;;;;5079670;28;20461;-80
2023/07/28 06:34:42;;;;;;;5.17;1.87;;;20.30;86.90;;;;;;5088715;28;20510;-80
2023/07/28 06:37:09;;;;;;;5.20;2.23;;;20.30;86.90;;;;;;5085523;28;20499;-80
2023/07/28 06:39:39;;;;;;;8.50;1.87;;;20.30;86.90;;;;;;5087482;28;20535;-80
2023/07/28 06:42:10;;;;;;;4.03;1.50;;;20.30;86.80;;;;;;5089658;28;20453;-80
2023/07/28 06:44:40;;;;;;;4.87;1.57;;;20.40;86.80;;;;;;5084932;28;20462;-80
2023/07/28 06:47:08;;;;;;;3.77;1.57;;;20.30;86.80;;;;;;5090178;28;20500;-80
2023/07/28 06:49:36;;;;;;;6.07;1.60;;;20.30;86.90;;;;;;5088168;28;21092;-80
2023/07/28 06:52:04;;;;;;;3.80;1.50;;;20.30;86.90;;;;;;5084325;28;20449;-80
2023/07/28 06:54:33;;;;;;;5.10;1.80;;;20.30;86.90;;;;;;5085195;28;20951;-80
2023/07/28 06:57:03;;;;;;;8.87;1.70;;;20.30;86.90;;;;;;5087593;28;20441;-80
2023/07/28 06:59:31;;;;;;;3.70;1.40;;;20.30;86.90;;;;;;5098617;28;20465;-81
2023/07/28 07:01:59;;;;;;;5.63;1.87;;;20.30;86.90;;;;;;5080870;28;20541;-79
2023/07/28 07:04:29;;;;;;;4.43;1.97;;;20.30;86.90;;;;;;5089646;28;20488;-81
2023/07/28 07:06:59;;;;;;;5.27;1.90;;;20.30;86.90;;;;;;5082962;28;20530;-80
2023/07/28 07:09:28;;;;;;;4.30;1.67;;;20.30;86.90;;;;;;5083820;28;20453;-79
2023/07/28 07:11:56;;;;;;;5.37;2.03;;;20.30;86.90;;;;;;5088891;28;20456;-81
2023/07/28 07:14:25;;;;;;;4.57;1.93;;;20.30;86.90;;;;;;5103496;28;20563;-81
2023/07/28 07:16:54;;;;;;;3.90;1.67;;;20.30;86.90;;;;;;5083828;28;20547;-81
2023/07/28 07:19:22;;;;;;;5.07;1.90;;;20.30;86.90;;;;;;5100182;28;20539;-81
2023/07/28 07:21:50;;;;;;;4.10;1.70;;;20.30;86.90;;;;;;5082793;28;20527;-80
2023/07/28 07:24:18;;;;;;;4.90;1.93;;;20.30;86.90;;;;;;5082753;28;20539;-82
2023/07/28 07:26:46;;;;;;;5.03;1.70;;;20.30;86.80;;;;;;5088373;28;20483;-80
2023/07/28 07:29:14;;;;;;;5.73;2.20;;;20.40;86.70;;;;;;5103517;28;20465;-80
2023/07/28 07:31:59;;;;;;;5.40;1.70;;;20.40;86.80;;;;;;5080128;28;20465;-81
2023/07/28 07:34:27;;;;;;;4.67;1.70;;;20.40;86.80;;;;;;5084448;28;20495;-80
2023/07/28 07:36:56;;;;;;;5.00;1.93;;;20.40;86.80;;;;;;5085873;28;21178;-80
2023/07/28 07:39:24;;;;;;;5.63;2.07;;;20.40;86.90;;;;;;5082713;28;20647;-81
2023/07/28 07:41:52;;;;;;;5.80;2.03;;;20.40;86.80;;;;;;5083731;28;20504;-79
2023/07/28 07:44:20;;;;;;;5.40;2.27;;;20.40;86.80;;;;;;5090907;28;20461;-81
2023/07/28 07:46:48;;;;;;;5.47;1.80;;;20.50;86.90;;;;;;5087348;28;20539;-81
2023/07/28 07:49:18;;;;;;;4.60;2.07;;;20.50;87.10;;;;;;5074010;28;20540;-81
2023/07/28 07:51:47;;;;;;;7.40;2.17;;;20.50;87.10;;;;;;5087067;28;20462;-79
2023/07/28 07:54:18;;;;;;;6.40;2.30;;;20.60;87.10;;;;;;5084585;28;20544;-82
2023/07/28 07:56:46;;;;;;;5.87;2.20;;;20.60;87.10;;;;;;5085022;28;20457;-82
2023/07/28 07:59:15;;;;;;;4.97;2.70;;;20.60;87.10;;;;;;5089152;28;20460;-81
2023/07/28 08:01:42;;;;;;;7.70;2.23;;;20.70;87.10;;;;;;5087849;28;20467;-80
2023/07/28 08:04:31;;;;;;;5.07;2.70;;;20.70;87.10;;;;;;5083923;28;20445;-79
2023/07/28 08:06:59;;;;;;;4.83;2.30;;;20.70;87.00;;;;;;5073649;28;20514;-80
2023/07/28 08:09:27;;;;;;;5.57;2.27;;;20.70;87.10;;;;;;5083238;28;20506;-80
2023/07/28 08:11:55;;;;;;;5.67;2.30;;;20.70;87.00;;;;;;5092300;28;20463;-81
2023/07/28 08:14:23;;;;;;;4.67;2.53;;;20.70;86.90;;;;;;5084540;28;20563;-80
2023/07/28 08:16:52;;;;;;;6.03;2.77;;;20.70;87.00;;;;;;5083118;28;20459;-80
2023/07/28 08:19:20;;;;;;;5.67;3.13;;;20.70;87.00;;;;;;5087689;28;20508;-80
2023/07/28 08:21:49;;;;;;;6.90;2.80;;;20.80;87.00;;;;;;5083365;28;20962;-80
2023/07/28 08:24:17;;;;;;;7.50;2.70;;;20.80;87.00;;;;;;5087353;28;20874;-79
2023/07/28 08:26:45;;;;;;;5.13;2.73;;;20.80;86.90;;;;;;5085155;28;21115;-80
2023/07/28 08:29:13;;;;;;;4.87;2.77;;;20.80;86.90;;;;;;5080306;28;20453;-80
2023/07/28 08:31:41;;;;;;;4.60;2.70;;;20.80;86.80;;;;;;5083789;28;20477;-80
2023/07/28 08:34:10;;;;;;;4.57;2.70;;;20.90;86.70;;;;;;5082499;28;20477;-80
2023/07/28 08:36:38;;;;;;;5.03;3.00;;;20.90;86.70;;;;;;5103551;28;20468;-80
2023/07/28 08:39:09;;;;;;;5.37;3.30;;;20.80;86.60;;;;;;5088464;28;20552;-81
2023/07/28 08:41:37;;;;;;;9.90;3.63;;;20.80;86.60;;;;;;5083191;28;20453;-80
2023/07/28 08:44:06;;;;;;;6.70;3.77;;;20.90;86.60;;;;;;5086257;28;20537;-81
2023/07/28 08:46:35;;;;;;;5.60;3.50;;;20.80;86.60;;;;;;5088991;28;20476;-81
2023/07/28 08:49:03;;;;;;;5.57;3.30;;;20.90;86.70;;;;;;5082136;28;21013;-80
2023/07/28 08:51:32;;;;;;;4.83;3.20;;;20.90;86.70;;;;;;5099688;28;20534;-81
2023/07/28 08:54:00;;;;;;;5.90;3.90;;;20.90;86.80;;;;;;5094977;28;20950;-81
2023/07/28 08:56:29;;;;;;;5.80;3.70;;;21.00;86.80;;;;;;5088709;28;20453;-79
2023/07/28 08:59:01;;;;;;;5.90;3.70;;;21.00;86.90;;;;;;5077643;28;20532;-79
2023/07/28 09:01:30;;;;;;;5.30;3.57;;;21.10;86.80;;;;;;5082791;28;20615;-82
2023/07/28 09:03:58;;;;;;;8.70;3.20;;;21.20;86.80;;;;;;5082353;28;20495;-80
2023/07/28 09:06:30;;;;;;;6.43;3.70;;;21.30;86.70;;;;;;5084523;28;20444;-82
2023/07/28 09:08:59;;;;;;;6.00;3.70;;;21.30;86.70;;;;;;5086748;28;20485;-81
2023/07/28 09:11:29;;;;;;;6.63;3.87;;;21.40;86.70;;;;;;5088137;28;20448;-81
2023/07/28 09:14:12;;;;;;;7.27;4.00;;;21.40;86.70;;;;;;5084193;28;20473;-82
2023/07/28 09:16:40;;;;;;;6.10;3.90;;;21.40;86.60;;;;;;5084176;28;20475;-80
2023/07/28 09:19:10;;;;;;;5.90;3.90;;;21.50;86.60;;;;;;5082708;28;20449;-79
2023/07/28 09:21:40;;;;;;;5.00;3.20;;;21.50;86.60;;;;;;5081461;28;20953;-80
2023/07/28 09:24:10;;;;;;;6.17;3.70;;;21.60;86.80;;;;;;5085363;28;20453;-79
2023/07/28 09:26:47;;;;;;;6.33;3.70;;;21.70;86.70;;;;;;5084757;28;20524;-79
2023/07/28 09:37:12;;;;;;;5.60;4.17;;;21.80;86.20;;;;;;5089916;28;20464;-79
2023/07/28 09:39:41;;;;;;;5.50;3.53;;;21.90;86.20;;;;;;5105245;28;20452;-80
2023/07/28 09:42:12;;;;;;;6.27;3.87;;;21.90;86.10;;;;;;5086009;28;20942;-80
2023/07/28 09:44:41;;;;;;;6.03;3.50;;;22.00;85.90;;;;;;5088642;28;20452;-80
2023/07/28 09:47:10;;;;;;;5.93;3.53;;;22.00;85.70;;;;;;5090493;28;20457;-81
2023/07/28 09:49:42;;;;;;;5.20;3.00;;;22.10;85.50;;;;;;5087111;28;20540;-80
2023/07/28 09:52:11;;;;;;;5.30;3.30;;;22.10;85.60;;;;;;5086150;28;20471;-80
2023/07/28 09:54:44;;;;;;;5.13;2.63;;;22.20;85.70;;;;;;5089089;28;20459;-81
2023/07/28 09:57:14;;;;;;;7.30;3.17;;;22.20;85.50;;;;;;5088054;28;20456;-80
2023/07/28 09:59:46;;;;;;;4.87;2.77;;;22.30;85.30;;;;;;5081348;28;20445;-80
2023/07/28 10:02:14;;;;;;;5.50;3.27;;;22.30;85.30;;;;;;5083283;28;20508;-80
2023/07/28 10:04:42;;;;;;;5.50;3.00;;;22.40;85.30;;;;;;5085052;28;20451;-80
2023/07/28 10:07:11;;;;;;;4.83;2.90;;;22.50;85.30;;;;;;5086797;28;20445;-81
2023/07/28 10:09:39;;;;;;;4.70;2.60;;;22.50;85.10;;;;;;5081282;28;20451;-79
2023/07/28 10:12:18;;;;;;;5.70;3.37;;;22.60;84.80;;;;;;5086837;28;20966;-80
2023/07/28 10:14:47;;;;;;;5.23;3.10;;;22.60;84.60;;;;;;5085538;28;20540;-79
2023/07/28 10:17:17;;;;;;;5.63;3.00;;;22.70;84.50;;;;;;5085765;28;20455;-81
2023/07/28 10:19:45;;;;;;;5.43;2.47;;;22.70;84.40;;;;;;5090486;28;20459;-78
2023/07/28 10:22:13;;;;;;;7.20;2.33;;;22.70;84.30;;;;;;5088743;28;20437;-80
2023/07/28 10:24:52;;;;;;;6.50;2.90;;;22.80;84.00;;;;;;5088475;28;20463;-79
2023/07/28 10:27:30;;;;;;;9.00;2.30;;;22.80;83.70;;;;;;5083224;28;20967;-79
2023/07/28 10:30:04;;;;;;;5.90;2.83;;;22.80;83.50;;;;;;5082534;28;20483;-79
2023/07/28 10:32:38;;;;;;;6.53;2.60;;;22.90;83.40;;;;;;5083043;28;20556;-79
2023/07/28 10:35:23;;;;;;;4.60;2.33;;;22.90;83.10;;;;;;5090733;28;20452;-80
2023/07/28 10:37:51;;;;;;;4.93;2.77;;;22.90;82.60;;;;;;5086489;28;20460;-80
2023/07/28 10:40:29;;;;;;;5.00;2.70;;;22.90;82.70;;;;;;5079321;28;20529;-79
2023/07/28 10:42:58;;;;;;;4.67;2.67;;;22.90;82.60;;;;;;5085333;28;20467;-79
2023/07/28 10:45:29;;;;;;;5.37;2.87;;;23.00;82.40;;;;;;5090216;28;20458;-79
2023/07/28 10:47:59;;;;;;;5.03;2.90;;;23.00;82.40;;;;;;5086605;28;20460;-80
2023/07/28 10:50:29;;;;;;;5.47;2.77;;;23.10;82.20;;;;;;5087844;28;21054;-79
2023/07/28 10:53:03;;;;;;;4.53;2.53;;;23.10;82.20;;;;;;5080764;28;20465;-79
2023/07/28 10:55:31;;;;;;;4.80;2.80;;;23.20;82.10;;;;;;5089095;28;20544;-80
2023/07/28 10:58:02;;;;;;;7.07;2.77;;;23.30;82.00;;;;;;5087755;28;20473;-79
2023/07/28 11:00:32;;;;;;;6.50;3.37;;;23.40;81.70;;;;;;5096199;28;21047;-80
2023/07/28 11:02:59;;;;;;;5.90;2.93;;;23.40;81.50;;;;;;5087108;28;20469;-79
2023/07/28 11:05:32;;;;;;;4.87;2.87;;;23.40;81.30;;;;;;5088785;28;20464;-80
2023/07/28 11:08:02;;;;;;;4.60;2.50;;;23.40;81.40;;;;;;5088772;28;20969;-79
2023/07/28 11:10:32;;;;;;;5.17;2.70;;;23.50;81.00;;;;;;5079817;28;20795;-79
2023/07/28 11:13:03;;;;;;;8.00;2.93;;;23.50;80.70;;;;;;5093503;28;20449;-79
2023/07/28 11:15:53;;;;;;;6.30;3.07;;;23.50;80.50;;;;;;5084963;28;20555;-79
2023/07/28 11:18:21;;;;;;;4.50;2.43;;;23.50;80.30;;;;;;5086688;28;20491;-79
2023/07/28 11:20:49;;;;;;;5.60;2.87;;;23.50;80.30;;;;;;5081233;28;20454;-79
2023/07/28 11:23:17;;;;;;;4.27;2.13;;;23.50;80.10;;;;;;5083187;28;20445;-79
2023/07/28 11:25:47;;;;;;;4.50;2.40;;;23.50;80.20;;;;;;5090145;28;20833;-79
2023/07/28 11:28:16;;;;;;;5.70;2.30;;;23.50;80.10;;;;;;5083848;28;20604;-79
2023/07/28 11:30:44;;;;;;;6.30;2.00;;;23.50;79.90;;;;;;5082142;28;20527;-79
2023/07/28 11:33:14;;;;;;;8.33;2.23;;;23.50;79.70;;;;;;5088433;28;20445;-79
2023/07/28 11:35:47;;;;;;;6.80;1.60;;;23.50;79.60;;;;;;5086658;28;20445;-78
2023/07/28 11:38:15;;;;;;;5.13;1.90;;;23.40;79.50;;;;;;5086946;28;20455;-79
2023/07/28 11:40:44;;;;;;;4.17;1.80;;;23.40;79.40;;;;;;5082073;28;20461;-79
2023/07/28 11:43:13;;;;;;;4.20;2.03;;;23.40;79.30;;;;;;5082305;28;20477;-80
2023/07/28 11:45:41;;;;;;;4.73;1.70;;;23.40;79.30;;;;;;5079546;28;20465;-79
2023/07/28 11:48:08;;;;;;;6.37;2.00;;;23.50;79.20;;;;;;5085599;28;20846;-79
2023/07/28 11:50:39;;;;;;;4.60;2.20;;;23.50;79.00;;;;;;5084337;28;20488;-79
2023/07/28 11:53:09;;;;;;;3.90;1.70;;;23.50;79.10;;;;;;5084102;28;20549;-80
2023/07/28 11:55:58;;;;;;;4.40;2.20;;;23.60;79.00;;;;;;5082776;28;20510;-79
2023/07/28 11:58:27;;;;;;;4.43;2.20;;;23.70;78.80;;;;;;5078718;28;20468;-79
2023/07/28 12:00:55;;;;;;;3.80;1.67;;;23.70;78.70;;;;;;5083475;28;20476;-79
2023/07/28 12:03:30;;;;;;;4.53;1.93;;;23.70;78.60;;;;;;5084744;28;20530;-79
2023/07/28 12:06:09;;;;;;;5.30;2.27;;;23.70;78.50;;;;;;5080017;28;20527;-80
2023/07/28 12:09:06;;;;;;;6.97;1.90;;;23.70;78.50;;;;;;5076482;28;20548;-79
2023/07/28 12:11:38;;;;;;;4.70;2.20;;;23.60;78.40;;;;;;5088611;28;21091;-79
2023/07/28 12:14:09;;;;;;;4.40;2.10;;;23.60;78.50;;;;;;5089268;28;20459;-79
2023/07/28 12:16:41;;;;;;;4.50;2.10;;;23.60;78.50;;;;;;5080868;28;20518;-79
2023/07/28 12:19:12;;;;;;;5.03;1.90;;;23.60;78.40;;;;;;5084707;28;20460;-79
2023/07/28 12:21:42;;;;;;;4.63;1.83;;;23.60;78.30;;;;;;5083552;28;20536;-79
2023/07/28 12:24:10;;;;;;;4.30;1.63;;;23.60;78.20;;;;;;5081340;28;20458;-79
2023/07/28 12:26:38;;;;;;;5.93;1.90;;;23.60;78.20;;;;;;5088454;28;21139;-79
2023/07/28 12:29:08;;;;;;;4.13;1.90;;;23.70;78.10;;;;;;5086237;28;20465;-79
2023/07/28 12:31:38;;;;;;;3.63;1.53;;;23.70;78.10;;;;;;5074691;28;20470;-79
2023/07/28 12:34:09;;;;;;;4.10;1.40;;;23.70;78.10;;;;;;5087468;28;20448;-79
2023/07/28 12:36:38;;;;;;;5.90;1.80;;;23.80;78.00;;;;;;5084574;28;20528;-80
2023/07/28 12:39:12;;;;;;;5.83;1.70;;;23.80;77.90;;;;;;5079752;28;20968;-79
2023/07/28 12:41:44;;;;;;;4.47;1.87;;;23.80;78.00;;;;;;5083670;28;20449;-79
2023/07/28 12:44:32;;;;;;;3.77;1.33;;;23.90;77.90;;;;;;5087388;28;20445;-79
2023/07/28 12:47:04;;;;;;;4.10;1.53;;;23.90;77.90;;;;;;5079252;28;20454;-79
2023/07/28 12:49:35;;;;;;;3.90;1.50;;;24.00;77.80;;;;;;5082312;28;20453;-79
2023/07/28 12:52:06;;;;;;;4.43;1.90;;;24.00;77.60;;;;;;5082162;28;20453;-79
2023/07/28 12:54:36;;;;;;;4.00;1.37;;;24.10;77.30;;;;;;5084996;28;20449;-79
2023/07/28 12:57:09;;;;;;;3.60;1.30;;;24.10;77.00;;;;;;5096870;28;20982;-79
2023/07/28 12:59:39;;;;;;;4.33;1.70;;;24.00;76.80;;;;;;5084587;28;20467;-79
2023/07/28 13:02:10;;;;;;;4.00;1.50;;;24.00;76.70;;;;;;5087758;28;20475;-79
2023/07/28 13:04:39;;;;;;;4.30;1.80;;;24.00;76.70;;;;;;5083703;28;20626;-79
2023/07/28 13:07:06;;;;;;;3.77;1.20;;;24.00;76.70;;;;;;5089639;28;20433;-79
2023/07/28 13:09:39;;;;;;;4.67;1.63;;;24.00;76.60;;;;;;5089222;28;20451;-80